^^
Grace C. Lehan Memorial Weather Station Historical Data
Daily Summary for June 28, 2022 Units:  Metric    English   Both
Daily Weekly Monthly Yearly
  High: Low: Average:
Temperature: 26.9 °C 15.4 °C 21.2 °C
Dew Point: 16.6 °C 12.7 °C 14.3 °C
Humidity: 90% 46.3% 67%
Wind Speed: 5km/h 0km/h 0.6km/h
Wind Gust: 20.9km/h - -
Wind- - West
Pressure: 1020.5 hPa 1015.1 hPa -
Precipitation: 0 mm    
 
 
Tabular Data for June 28, 2022
Time Temperature Dew Point Pressure Wind Wind Speed Wind Gust Humidity Rainfall Rate (Hourly) solar
00:00 17.8 °C 15.1 °C 1015.1 hPa Calm     84% 0 mm 0 W/m2
00:09 17.7 °C 15 °C 1015.1 hPa Calm     84% 0 mm 0 W/m2
00:14 17.7 °C 14.8 °C 1015.1 hPa Calm     83% 0 mm 0 W/m2
00:19 17.7 °C 14.7 °C 1015.1 hPa Calm     83% 0 mm 0 W/m2
00:24 17.6 °C 14.7 °C 1015.1 hPa Calm     83% 0 mm 0 W/m2
00:29 17.6 °C 14.6 °C 1015.1 hPa Calm     83% 0 mm 0 W/m2
00:34 17.5 °C 14.6 °C 1015.1 hPa Calm     83% 0 mm 0 W/m2
00:39 17.4 °C 14.5 °C 1015.5 hPa Calm     83% 0 mm 0 W/m2
00:44 17.3 °C 14.4 °C 1015.5 hPa Calm     83% 0 mm 0 W/m2
00:49 17.2 °C 14.3 °C 1015.5 hPa Calm     83% 0 mm 0 W/m2
00:54 17.1 °C 14.4 °C 1015.5 hPa Calm     83.8% 0 mm 0 W/m2
00:59 17.1 °C 14.3 °C 1015.5 hPa Calm     84% 0 mm 0 W/m2
01:04 16.9 °C 14.2 °C 1015.5 hPa Calm     84% 0 mm 0 W/m2
01:09 16.8 °C 14.3 °C 1015.5 hPa Calm     84.9% 0 mm 0 W/m2
01:14 16.7 °C 14.3 °C 1015.5 hPa Calm     85.5% 0 mm 0 W/m2
01:19 16.6 °C 14.3 °C 1015.5 hPa Calm     86.6% 0 mm 0 W/m2
01:24 16.4 °C 14.3 °C 1015.5 hPa Calm     87.3% 0 mm 0 W/m2
01:29 16.3 °C 14.3 °C 1015.5 hPa Calm     88% 0 mm 0 W/m2
01:34 16.2 °C 14.2 °C 1015.8 hPa Calm     88.1% 0 mm 0 W/m2
01:39 16.1 °C 14.3 °C 1015.8 hPa Calm     89% 0 mm 0 W/m2
01:44 16 °C 14.2 °C 1015.5 hPa Calm     89.4% 0 mm 0 W/m2
01:49 15.9 °C 14.2 °C 1015.5 hPa West 0.5 km/h 4.8 km/h 90% 0 mm 0 W/m2
01:54 15.8 °C 14.2 °C 1015.8 hPa Calm   4.8 km/h 90% 0 mm 0 W/m2
01:59 15.7 °C 13.9 °C 1015.8 hPa West 0.3 km/h 4.8 km/h 89% 0 mm 0 W/m2
02:04 15.7 °C 13.7 °C 1015.8 hPa Calm   4.8 km/h 88% 0 mm 0 W/m2
02:09 15.7 °C 13.6 °C 1015.8 hPa Calm     87% 0 mm 0 W/m2
02:14 15.8 °C 13.7 °C 1015.8 hPa Calm     87% 0 mm 0 W/m2
02:19 15.8 °C 13.6 °C 1015.8 hPa Calm     86.4% 0 mm 0 W/m2
02:24 15.8 °C 13.4 °C 1015.8 hPa Calm     85.5% 0 mm 0 W/m2
02:29 15.8 °C 13.2 °C 1016.1 hPa Calm     84.4% 0 mm 0 W/m2
02:34 15.8 °C 13.1 °C 1016.1 hPa Calm     84% 0 mm 0 W/m2
02:39 15.8 °C 13.2 °C 1016.1 hPa Calm     84% 0 mm 0 W/m2
02:44 15.8 °C 13.2 °C 1016.1 hPa Calm     84% 0 mm 0 W/m2
02:49 15.8 °C 13.1 °C 1016.1 hPa Calm     83.8% 0 mm 0 W/m2
02:54 15.9 °C 13.1 °C 1016.5 hPa Calm     83.1% 0 mm 0 W/m2
02:59 15.9 °C 13.1 °C 1016.5 hPa Calm     83.3% 0 mm 0 W/m2
03:04 15.9 °C 13.1 °C 1016.5 hPa Calm     83% 0 mm 0 W/m2
03:09 15.9 °C 13.1 °C 1016.1 hPa Calm     83.5% 0 mm 0 W/m2
03:14 15.8 °C 13.2 °C 1016.1 hPa Calm     84% 0 mm 0 W/m2
03:19 15.8 °C 13.1 °C 1016.1 hPa Calm     83.8% 0 mm 0 W/m2
03:24 15.7 °C 13.1 °C 1016.1 hPa Calm     84% 0 mm 0 W/m2
03:29 15.7 °C 13 °C 1016.1 hPa Calm     84% 0 mm 0 W/m2
03:34 15.7 °C 12.9 °C 1016.5 hPa Calm     83.8% 0 mm 0 W/m2
03:39 15.7 °C 12.8 °C 1016.1 hPa Calm     83.3% 0 mm 0 W/m2
03:44 15.7 °C 12.8 °C 1016.1 hPa Calm     83% 0 mm 0 W/m2
03:49 15.7 °C 12.8 °C 1016.1 hPa Calm     83% 0 mm 0 W/m2
03:54 15.7 °C 12.8 °C 1016.1 hPa Calm     83% 0 mm 0 W/m2
03:59 15.7 °C 12.9 °C 1016.5 hPa Calm     83.7% 0 mm 0 W/m2
04:00 15.7 °C 12.9 °C 1016.1 hPa Calm     84% 0 mm 0 W/m2
04:09 15.6 °C 12.9 °C 1016.1 hPa Calm     84% 0 mm 0 W/m2
04:14 15.6 °C 12.9 °C 1016.5 hPa Calm     84.1% 0 mm 0 W/m2
04:19 15.5 °C 12.8 °C 1016.5 hPa Calm     84.1% 0 mm 0 W/m2
04:24 15.5 °C 13 °C 1016.5 hPa Calm     85% 0 mm 0 W/m2
04:29 15.5 °C 12.9 °C 1016.5 hPa Calm     85% 0 mm 0 W/m2
04:34 15.4 °C 12.9 °C 1016.5 hPa Calm     85% 0 mm 0 W/m2
04:39 15.4 °C 12.9 °C 1016.5 hPa Calm     85% 0 mm 0 W/m2
04:44 15.4 °C 12.9 °C 1016.5 hPa Calm     84.8% 0 mm 0 W/m2
04:49 15.4 °C 12.8 °C 1016.5 hPa Calm     84.1% 0 mm 0 W/m2
04:54 15.4 °C 12.8 °C 1016.8 hPa Calm     84.2% 0 mm 0 W/m2
04:59 15.4 °C 12.7 °C 1016.8 hPa Calm     84% 0 mm 0 W/m2
05:04 15.4 °C 12.7 °C 1016.8 hPa Calm     84% 0 mm 0 W/m2
05:09 15.4 °C 12.7 °C 1016.8 hPa Calm     84% 0 mm 0 W/m2
05:14 15.4 °C 12.7 °C 1017.2 hPa Calm     84% 0 mm 0 W/m2
05:19 15.4 °C 12.9 °C 1017.2 hPa Calm     85% 0 mm 0 W/m2
05:24 15.5 °C 13 °C 1017.2 hPa Calm     85% 0 mm 0 W/m2
05:29 15.6 °C 13.2 °C 1017.2 hPa Calm     85.8% 0 mm 5 W/m2
05:34 15.6 °C 13.3 °C 1017.2 hPa Calm     86% 0 mm 7 W/m2
05:39 15.6 °C 13.3 °C 1017.2 hPa Calm     86% 0 mm 9 W/m2
05:44 15.6 °C 13.3 °C 1017.2 hPa Calm     86.4% 0 mm 11 W/m2
05:49 15.6 °C 13.4 °C 1017.5 hPa Calm     87% 0 mm 16 W/m2
05:54 15.6 °C 13.2 °C 1017.5 hPa Calm   1.6 km/h 85.5% 0 mm 40 W/m2
05:59 15.6 °C 13.4 °C 1017.5 hPa Calm   1.6 km/h 86.4% 0 mm 40 W/m2
06:04 15.7 °C 13.7 °C 1017.5 hPa Calm   1.6 km/h 87.4% 0 mm 42 W/m2
06:09 15.8 °C 13.8 °C 1017.8 hPa Calm     88% 0 mm 42 W/m2
06:14 15.8 °C 13.7 °C 1017.8 hPa Calm     87.3% 0 mm 33 W/m2
06:19 15.8 °C 13.7 °C 1017.8 hPa Calm     87% 0 mm 46 W/m2
06:24 15.8 °C 13.7 °C 1017.8 hPa Calm     87% 0 mm 69 W/m2
06:29 15.9 °C 13.7 °C 1017.8 hPa West 0.2 km/h 4.8 km/h 86.5% 0 mm 69 W/m2
06:34 16.1 °C 13.6 °C 1017.8 hPa Calm   4.8 km/h 85.4% 0 mm 74 W/m2
06:39 16.2 °C 13.7 °C 1017.8 hPa West 0.6 km/h 6.4 km/h 85% 0 mm 104 W/m2
06:44 16.3 °C 13.7 °C 1017.8 hPa West 0.2 km/h 6.4 km/h 84.5% 0 mm 234 W/m2
06:49 16.6 °C 13.9 °C 1017.8 hPa Calm   6.4 km/h 84.3% 0 mm 109 W/m2
06:54 16.7 °C 13.8 °C 1017.8 hPa Calm   6.4 km/h 83% 0 mm 91 W/m2
06:59 16.9 °C 13.9 °C 1017.8 hPa West 0.3 km/h 6.4 km/h 82.4% 0 mm 127 W/m2
07:04 17 °C 13.7 °C 1017.8 hPa Calm   6.4 km/h 81% 0 mm 153 W/m2
07:09 17.1 °C 13.7 °C 1018.2 hPa Calm   1.6 km/h 80.5% 0 mm 93 W/m2
07:14 17.2 °C 13.7 °C 1018.2 hPa Calm   1.6 km/h 80.1% 0 mm 93 W/m2
07:19 17.2 °C 13.8 °C 1018.2 hPa Calm   1.6 km/h 80% 0 mm 105 W/m2
07:24 17.3 °C 13.8 °C 1018.2 hPa West 1.1 km/h 6.4 km/h 80.1% 0 mm 218 W/m2
07:29 17.4 °C 13.8 °C 1018.5 hPa West 0.8 km/h 8 km/h 79.5% 0 mm 171 W/m2
07:34 17.5 °C 13.8 °C 1018.5 hPa West 0.3 km/h 8 km/h 79% 0 mm 155 W/m2
07:39 17.6 °C 13.9 °C 1018.5 hPa West 0.3 km/h 6.4 km/h 78.6% 0 mm 171 W/m2
07:44 17.7 °C 13.9 °C 1018.2 hPa WNW 1.4 km/h 11.3 km/h 78.4% 0 mm 167 W/m2
07:49 17.8 °C 13.9 °C 1018.5 hPa WNW 1.3 km/h 11.3 km/h 77.8% 0 mm 174 W/m2
07:54 17.9 °C 14.1 °C 1018.5 hPa Calm   11.3 km/h 78% 0 mm 260 W/m2
07:59 18.2 °C 14.2 °C 1018.5 hPa WNW 0.5 km/h 11.3 km/h 77.8% 0 mm 227 W/m2
08:00 18.3 °C 14.4 °C 1018.5 hPa Calm   11.3 km/h 78% 0 mm 227 W/m2
08:09 18.6 °C 14.5 °C 1018.5 hPa WNW 0.2 km/h 6.4 km/h 77.4% 0 mm 550 W/m2
08:14 18.9 °C 15 °C 1018.5 hPa WNW 0.2 km/h 6.4 km/h 78.1% 0 mm 564 W/m2
08:19 19.4 °C 15.4 °C 1018.5 hPa WNW 0.5 km/h 6.4 km/h 77.5% 0 mm 592 W/m2
08:24 20.1 °C 15.4 °C 1018.5 hPa WNW 0.3 km/h 6.4 km/h 74.4% 0 mm 635 W/m2
08:29 20.6 °C 15.7 °C 1018.5 hPa Calm   6.4 km/h 73.2% 0 mm 663 W/m2
08:34 21.1 °C 15.9 °C 1018.5 hPa Calm   6.4 km/h 72.1% 0 mm 789 W/m2
08:39 21.6 °C 15.9 °C 1018.5 hPa WNW 1.1 km/h 6.4 km/h 70.2% 0 mm 789 W/m2
08:44 22 °C 15.6 °C 1018.5 hPa WNW 0.6 km/h 6.4 km/h 67.1% 0 mm 397 W/m2
08:49 22.1 °C 15.4 °C 1018.8 hPa Calm   6.4 km/h 66.1% 0 mm 288 W/m2
08:54 21.9 °C 15.5 °C 1018.8 hPa WNW 2.1 km/h 11.3 km/h 66.7% 0 mm 828 W/m2
08:59 21.8 °C 15.1 °C 1018.5 hPa WNW 0.8 km/h 11.3 km/h 65.2% 0 mm 810 W/m2
09:04 21.8 °C 15.2 °C 1018.5 hPa WNW 1 km/h 11.3 km/h 66.1% 0 mm 882 W/m2
09:09 21.8 °C 15.4 °C 1018.5 hPa WNW 0.2 km/h 6.4 km/h 67.3% 0 mm 896 W/m2
09:14 21.8 °C 15.1 °C 1018.8 hPa WNW 2.1 km/h 9.7 km/h 65.6% 0 mm 394 W/m2
09:19 21.8 °C 15.3 °C 1018.8 hPa West 3.1 km/h 16.1 km/h 66.4% 0 mm 942 W/m2
09:24 22 °C 15.7 °C 1018.8 hPa Calm   16.1 km/h 67.5% 0 mm 942 W/m2
09:29 22.2 °C 15.7 °C 1018.5 hPa West 1 km/h 16.1 km/h 66.6% 0 mm 954 W/m2
09:34 22.4 °C 15.7 °C 1018.5 hPa West 0.8 km/h 16.1 km/h 65.9% 0 mm 954 W/m2
09:39 22.5 °C 15.6 °C 1018.5 hPa WNW 1 km/h 8 km/h 65.1% 0 mm 954 W/m2
09:44 22.5 °C 15.3 °C 1018.5 hPa WNW 1.8 km/h 11.3 km/h 63.8% 0 mm 508 W/m2
09:49 22.5 °C 15.2 °C 1018.5 hPa WNW 3.1 km/h 11.3 km/h 63.3% 0 mm 965 W/m2
09:54 22.6 °C 15.2 °C 1018.5 hPa WNW 3.2 km/h 11.3 km/h 63% 0 mm 965 W/m2
09:59 22.5 °C 15.6 °C 1018.5 hPa WNW 0.6 km/h 11.3 km/h 64.7% 0 mm 937 W/m2
10:04 22.7 °C 15.7 °C 1018.5 hPa WNW 0.5 km/h 11.3 km/h 64.9% 0 mm 837 W/m2
10:09 22.8 °C 15.3 °C 1018.5 hPa Calm   8 km/h 62.9% 0 mm 1020 W/m2
10:14 22.8 °C 15.6 °C 1018.5 hPa Calm   8 km/h 63.9% 0 mm 1157 W/m2
10:19 23 °C 15.6 °C 1018.5 hPa WNW 1 km/h 11.3 km/h 62.9% 0 mm 1160 W/m2
10:24 23.2 °C 15.9 °C 1018.5 hPa WNW 1 km/h 11.3 km/h 63.5% 0 mm 1160 W/m2
10:29 23.5 °C 16 °C 1018.8 hPa Calm   11.3 km/h 62.7% 0 mm 942 W/m2
10:34 23.8 °C 15.9 °C 1018.8 hPa WNW 0.6 km/h 11.3 km/h 61.1% 0 mm 942 W/m2
10:39 23.9 °C 15.4 °C 1018.8 hPa NNW 0.5 km/h 8 km/h 59.1% 0 mm 916 W/m2
10:44 24 °C 15.9 °C 1018.8 hPa Calm   8 km/h 60.5% 0 mm 907 W/m2
10:49 24.2 °C 15.8 °C 1018.8 hPa NNW 0.3 km/h 8 km/h 59.6% 0 mm 954 W/m2
10:54 24.3 °C 15.7 °C 1018.8 hPa Calm   8 km/h 58.4% 0 mm 1083 W/m2
10:59 24.5 °C 15.9 °C 1018.8 hPa NNW 0.2 km/h 8 km/h 59.1% 0 mm 1127 W/m2
11:04 24.6 °C 16.2 °C 1018.8 hPa NNE 0.6 km/h 8 km/h 59.5% 0 mm 1176 W/m2
11:09 24.8 °C 16.2 °C 1018.8 hPa NE 0.3 km/h 6.4 km/h 58.8% 0 mm 1176 W/m2
11:14 24.7 °C 15.2 °C 1018.8 hPa NE 1 km/h 6.4 km/h 55.2% 0 mm 213 W/m2
11:19 24.4 °C 15.4 °C 1018.8 hPa Calm   6.4 km/h 57% 0 mm 1025 W/m2
11:24 24.3 °C 15.7 °C 1018.8 hPa NNE 0.5 km/h 6.4 km/h 58.5% 0 mm 1013 W/m2
11:29 24.6 °C 16.6 °C 1018.8 hPa NNE 0.2 km/h 6.4 km/h 60.9% 0 mm 1065 W/m2
11:34 24.9 °C 15.9 °C 1018.8 hPa Calm   6.4 km/h 57.2% 0 mm 1090 W/m2
11:39 25.1 °C 16.1 °C 1018.8 hPa Calm     57.2% 0 mm 1085 W/m2
11:44 25.2 °C 16.3 °C 1018.8 hPa North 0.8 km/h 4.8 km/h 57.8% 0 mm 1078 W/m2
11:49 25.2 °C 15 °C 1018.8 hPa NNW 0.5 km/h 8 km/h 53.4% 0 mm 1069 W/m2
11:54 25.1 °C 15.2 °C 1018.8 hPa ENE 1.9 km/h 8 km/h 54.3% 0 mm 1151 W/m2
11:59 25 °C 15.1 °C 1018.8 hPa NE 0.3 km/h 8 km/h 54% 0 mm 1155 W/m2
12:09 24.6 °C 14.9 °C 1018.8 hPa East 1.9 km/h 9.7 km/h 54.9% 0 mm 1114 W/m2
12:14 24.5 °C 14.2 °C 1018.8 hPa ENE 2.1 km/h 9.7 km/h 52.7% 0 mm 1132 W/m2
12:19 24.5 °C 14.6 °C 1019.2 hPa NNE 1.1 km/h 9.7 km/h 53.9% 0 mm 1209 W/m2
12:24 24.6 °C 14.8 °C 1019.2 hPa North 1.9 km/h 14.5 km/h 54.6% 0 mm 230 W/m2
12:29 24.3 °C 14.7 °C 1018.8 hPa NNW 1 km/h 14.5 km/h 54.7% 0 mm 156 W/m2
12:34 24.1 °C 15.2 °C 1018.8 hPa NNW 0.3 km/h 14.5 km/h 57.7% 0 mm 1086 W/m2
12:39 24.2 °C 14.2 °C 1018.8 hPa NNW 0.5 km/h 4.8 km/h 53.5% 0 mm 1081 W/m2
12:44 24.4 °C 15 °C 1018.8 hPa NNW 0.3 km/h 4.8 km/h 55.8% 0 mm 1139 W/m2
12:49 24.7 °C 14.7 °C 1018.8 hPa NNW 0.2 km/h 4.8 km/h 53.9% 0 mm 1139 W/m2
12:54 24.8 °C 15.2 °C 1019.2 hPa NW 1.6 km/h 11.3 km/h 55.4% 0 mm 1116 W/m2
12:59 25 °C 14.9 °C 1019.2 hPa Calm   11.3 km/h 53.5% 0 mm 1102 W/m2
13:04 25.1 °C 14.8 °C 1018.8 hPa Calm   11.3 km/h 52.8% 0 mm 1102 W/m2
13:09 25.2 °C 14.6 °C 1018.8 hPa WNW 0.5 km/h 4.8 km/h 51.9% 0 mm 1102 W/m2
13:14 25 °C 14.4 °C 1019.2 hPa WNW 1 km/h 4.8 km/h 52% 0 mm 1078 W/m2
13:19 24.9 °C 15.2 °C 1019.2 hPa WNW 0.2 km/h 4.8 km/h 54.6% 0 mm 1088 W/m2
13:24 25.1 °C 15.1 °C 1018.8 hPa WSW 1.8 km/h 9.7 km/h 54% 0 mm 1134 W/m2
13:29 25.2 °C 15.2 °C 1018.8 hPa WSW 0.5 km/h 9.7 km/h 53.8% 0 mm 1102 W/m2
13:34 25.3 °C 15.4 °C 1018.8 hPa WSW 0.8 km/h 9.7 km/h 54.4% 0 mm 1148 W/m2
13:39 25.5 °C 15.4 °C 1018.8 hPa West 1.3 km/h 8 km/h 53.7% 0 mm 1102 W/m2
13:44 25.7 °C 15.3 °C 1018.8 hPa WNW 0.8 km/h 8 km/h 52.7% 0 mm 1109 W/m2
13:49 25.7 °C 14.7 °C 1018.8 hPa ENE 1.6 km/h 8 km/h 50.6% 0 mm 1088 W/m2
13:54 25.6 °C 13.9 °C 1018.8 hPa ENE 0.6 km/h 8 km/h 48.6% 0 mm 1085 W/m2
13:59 25.3 °C 13.9 °C 1018.8 hPa ENE 0.2 km/h 8 km/h 49.3% 0 mm 1167 W/m2
14:04 25.1 °C 14.4 °C 1018.8 hPa NW 1 km/h 8 km/h 51.4% 0 mm 1167 W/m2
14:09 25 °C 14.9 °C 1018.8 hPa WNW 1 km/h 6.4 km/h 53.6% 0 mm 171 W/m2
14:14 24.9 °C 15.3 °C 1018.8 hPa WNW 0.5 km/h 6.4 km/h 55.1% 0 mm 1107 W/m2
14:19 25.2 °C 15.7 °C 1018.8 hPa WNW 2.7 km/h 11.3 km/h 55.8% 0 mm 1097 W/m2
14:24 25.6 °C 14.9 °C 1018.8 hPa West 1.8 km/h 11.3 km/h 51.8% 0 mm 1097 W/m2
14:29 25.9 °C 15.3 °C 1018.8 hPa West 2.1 km/h 11.3 km/h 51.8% 0 mm 1074 W/m2
14:34 26.3 °C 15.7 °C 1018.8 hPa WSW 3.7 km/h 14.5 km/h 52.2% 0 mm 1014 W/m2
14:39 26.6 °C 15.8 °C 1018.8 hPa WNW 0.6 km/h 14.5 km/h 51.6% 0 mm 991 W/m2
14:44 26.9 °C 15.6 °C 1018.8 hPa West 2.3 km/h 14.5 km/h 50.1% 0 mm 979 W/m2
14:49 26.9 °C 14.8 °C 1018.8 hPa WNW 2.3 km/h 14.5 km/h 47.7% 0 mm 974 W/m2
14:54 26.7 °C 14.7 °C 1018.8 hPa West 1.1 km/h 14.5 km/h 47.8% 0 mm 990 W/m2
14:59 26.6 °C 14.8 °C 1018.8 hPa Calm   14.5 km/h 48.5% 0 mm 998 W/m2
15:04 26.6 °C 15.3 °C 1018.8 hPa NW 2.3 km/h 16.1 km/h 50% 0 mm 984 W/m2
15:09 26.7 °C 14.9 °C 1018.8 hPa WNW 5 km/h 16.1 km/h 48.3% 0 mm 991 W/m2
15:14 26.7 °C 14.8 °C 1018.8 hPa WSW 2.9 km/h 16.1 km/h 48% 0 mm 990 W/m2
15:19 26.5 °C 14.8 °C 1018.8 hPa West 0.2 km/h 16.1 km/h 48.8% 0 mm 935 W/m2
15:24 26.4 °C 15.9 °C 1018.8 hPa West 0.6 km/h 16.1 km/h 52.4% 0 mm 942 W/m2
15:29 26.6 °C 15.6 °C 1018.8 hPa West 1.4 km/h 16.1 km/h 50.6% 0 mm 933 W/m2
15:34 26.7 °C 15.2 °C 1019.2 hPa WNW 3.4 km/h 16.1 km/h 49.2% 0 mm 889 W/m2
15:39 26.7 °C 14.6 °C 1018.8 hPa NW 0.2 km/h 14.5 km/h 47.3% 0 mm 881 W/m2
15:44 26.7 °C 14.8 °C 1018.8 hPa NNW 2.3 km/h 14.5 km/h 48.3% 0 mm 853 W/m2
15:49 26.7 °C 14.7 °C 1018.8 hPa North 0.8 km/h 14.5 km/h 47.9% 0 mm 854 W/m2
15:54 26.6 °C 14.1 °C 1018.8 hPa Calm   14.5 km/h 46.3% 0 mm 91 W/m2
15:59 26.3 °C 14.8 °C 1018.8 hPa NNW 1.3 km/h 14.5 km/h 48.9% 0 mm 807 W/m2
16:00 26.3 °C 15.1 °C 1018.8 hPa Calm   14.5 km/h 50% 0 mm 791 W/m2
16:09 26.3 °C 14.7 °C 1018.8 hPa WNW 0.8 km/h 3.2 km/h 48.7% 0 mm 770 W/m2
16:14 26.4 °C 14.6 °C 1018.8 hPa WNW 1 km/h 6.4 km/h 48.1% 0 mm 763 W/m2
16:19 26.3 °C 14.4 °C 1018.8 hPa WNW 0.5 km/h 6.4 km/h 47.9% 0 mm 84 W/m2
16:24 26.2 °C 14.1 °C 1018.8 hPa WNW 0.2 km/h 6.4 km/h 47.3% 0 mm 100 W/m2
16:29 26.1 °C 14.6 °C 1018.5 hPa WNW 0.5 km/h 6.4 km/h 49.1% 0 mm 93 W/m2
16:34 26.1 °C 14.6 °C 1018.5 hPa WNW 1 km/h 6.4 km/h 49.3% 0 mm 58 W/m2
16:39 26.1 °C 14.4 °C 1018.5 hPa NW 2.1 km/h 8 km/h 48.7% 0 mm 54 W/m2
16:44 26 °C 14.2 °C 1018.5 hPa NW 3.1 km/h 11.3 km/h 48% 0 mm 54 W/m2
16:49 25.9 °C 14.2 °C 1018.5 hPa WNW 0.6 km/h 11.3 km/h 48.2% 0 mm 51 W/m2
16:54 25.8 °C 13.5 °C 1018.5 hPa Calm   11.3 km/h 46.5% 0 mm 47 W/m2
16:59 25.7 °C 13.8 °C 1018.5 hPa WNW 0.3 km/h 11.3 km/h 47.6% 0 mm 47 W/m2
17:04 25.8 °C 14.1 °C 1018.5 hPa WNW 2.3 km/h 11.3 km/h 48.4% 0 mm 47 W/m2
17:09 25.8 °C 13.9 °C 1018.5 hPa NW 2.4 km/h 9.7 km/h 47.6% 0 mm 47 W/m2
17:14 25.9 °C 14 °C 1018.5 hPa WNW 3.4 km/h 14.5 km/h 47.8% 0 mm 46 W/m2
17:19 25.9 °C 14.3 °C 1018.5 hPa WNW 1.1 km/h 14.5 km/h 48.8% 0 mm 49 W/m2
17:24 25.8 °C 13.8 °C 1018.5 hPa NW 2.6 km/h 14.5 km/h 47.3% 0 mm 47 W/m2
17:29 25.8 °C 13.7 °C 1018.5 hPa WNW 4.5 km/h 16.1 km/h 47.1% 0 mm 44 W/m2
17:34 25.8 °C 13.7 °C 1018.5 hPa WNW 3.4 km/h 16.1 km/h 47.3% 0 mm 42 W/m2
17:39 25.8 °C 14 °C 1018.5 hPa WNW 1.8 km/h 16.1 km/h 48.1% 0 mm 42 W/m2
17:44 25.8 °C 14.2 °C 1018.5 hPa NW 2.6 km/h 16.1 km/h 48.6% 0 mm 40 W/m2
17:49 25.8 °C 14.1 °C 1018.5 hPa West 0.5 km/h 16.1 km/h 48.2% 0 mm 40 W/m2
17:54 25.8 °C 14.3 °C 1018.2 hPa West 2.4 km/h 16.1 km/h 49.1% 0 mm 39 W/m2
17:59 25.7 °C 13.8 °C 1018.5 hPa WNW 3.7 km/h 16.1 km/h 47.6% 0 mm 39 W/m2
18:04 25.7 °C 13.7 °C 1018.5 hPa NW 3.9 km/h 16.1 km/h 47.3% 0 mm 39 W/m2
18:09 25.7 °C 14 °C 1018.5 hPa NW 0.8 km/h 16.1 km/h 48.4% 0 mm 37 W/m2
18:14 25.6 °C 13.8 °C 1018.5 hPa NW 1.4 km/h 16.1 km/h 48% 0 mm 37 W/m2
18:19 25.5 °C 13.8 °C 1018.5 hPa NW 1.8 km/h 20.9 km/h 48.4% 0 mm 37 W/m2
18:24 25.5 °C 13.8 °C 1018.5 hPa NW 2.7 km/h 20.9 km/h 48.3% 0 mm 37 W/m2
18:29 25.4 °C 13.9 °C 1018.5 hPa NW 0.5 km/h 20.9 km/h 48.8% 0 mm 35 W/m2
18:34 25.4 °C 14.1 °C 1018.5 hPa WNW 2.3 km/h 20.9 km/h 49.5% 0 mm 35 W/m2
18:39 25.4 °C 14.1 °C 1018.5 hPa West 2.1 km/h 11.3 km/h 49.3% 0 mm 35 W/m2
18:44 25.4 °C 13.9 °C 1018.5 hPa WNW 2.1 km/h 11.3 km/h 49.2% 0 mm 33 W/m2
18:49 25.4 °C 13.9 °C 1018.8 hPa WNW 1.6 km/h 11.3 km/h 49% 0 mm 33 W/m2
18:54 25.3 °C 14 °C 1018.8 hPa WNW 1.9 km/h 11.3 km/h 49.3% 0 mm 32 W/m2
18:58 25.3 °C 14 °C 1018.8 hPa Calm   11.3 km/h 49.5% 0 mm 32 W/m2
19:00 25.3 °C 13.9 °C 1018.8 hPa WNW 1.6 km/h 12.9 km/h 49% 0 mm 33 W/m2
19:30 25 °C 13.6 °C 1018.8 hPa Calm   8 km/h 49% 0 mm 27 W/m2
20:04 24.4 °C 14.1 °C 1019.2 hPa Calm   8 km/h 52.8% 0 mm 27 W/m2
20:09 24.3 °C 14.3 °C 1019.2 hPa Calm     53.8% 0 mm 12 W/m2
20:14 24.2 °C 14.4 °C 1019.2 hPa Calm     54.5% 0 mm 9 W/m2
20:19 24 °C 14.6 °C 1019.2 hPa Calm     55.6% 0 mm 5 W/m2
20:24 23.8 °C 14.7 °C 1019.2 hPa WNW 0.3 km/h 4.8 km/h 56.4% 0 mm 0 W/m2
20:29 23.7 °C 14.6 °C 1019.2 hPa Calm   4.8 km/h 57% 0 mm 0 W/m2
20:34 23.4 °C 14.6 °C 1019.5 hPa Calm   4.8 km/h 57.4% 0 mm 0 W/m2
20:39 23.2 °C 14.6 °C 1019.2 hPa Calm     58.3% 0 mm 0 W/m2
20:44 23 °C 14.6 °C 1019.5 hPa Calm     59% 0 mm 0 W/m2
20:49 22.8 °C 14.6 °C 1019.5 hPa Calm     59.6% 0 mm 0 W/m2
20:54 22.7 °C 14.6 °C 1019.5 hPa Calm     60.4% 0 mm 0 W/m2
20:59 22.4 °C 14.7 °C 1019.5 hPa Calm     61.4% 0 mm 0 W/m2
21:04 22.3 °C 14.8 °C 1019.5 hPa Calm     62.6% 0 mm 0 W/m2
21:09 22.1 °C 15.1 °C 1019.5 hPa Calm     64.5% 0 mm 0 W/m2
21:14 21.8 °C 14.9 °C 1019.9 hPa Calm     65% 0 mm 0 W/m2
21:19 21.6 °C 14.7 °C 1019.9 hPa Calm     65% 0 mm 0 W/m2
21:24 21.3 °C 14.5 °C 1019.9 hPa Calm     65% 0 mm 0 W/m2
21:29 21.2 °C 14.3 °C 1019.9 hPa Calm     65% 0 mm 0 W/m2
21:34 21 °C 14.3 °C 1019.9 hPa Calm     65.4% 0 mm 0 W/m2
21:39 20.8 °C 14.2 °C 1019.9 hPa Calm     65.8% 0 mm 0 W/m2
21:44 20.7 °C 14.2 °C 1019.9 hPa Calm     66.3% 0 mm 0 W/m2
21:49 20.6 °C 14.2 °C 1019.9 hPa Calm     67% 0 mm 0 W/m2
21:54 20.4 °C 14.2 °C 1019.9 hPa Calm     67.3% 0 mm 0 W/m2
21:59 20.3 °C 14.2 °C 1019.9 hPa Calm     68% 0 mm 0 W/m2
22:04 20.2 °C 14.2 °C 1020.2 hPa Calm     68.4% 0 mm 0 W/m2
22:09 20.1 °C 14.2 °C 1020.2 hPa Calm     69% 0 mm 0 W/m2
22:14 20 °C 14.2 °C 1020.2 hPa Calm     69% 0 mm 0 W/m2
22:19 19.9 °C 14.1 °C 1020.2 hPa Calm     69% 0 mm 0 W/m2
22:24 19.8 °C 14.1 °C 1020.2 hPa Calm     69.3% 0 mm 0 W/m2
22:29 19.8 °C 14.2 °C 1020.2 hPa Calm     70% 0 mm 0 W/m2
22:34 19.7 °C 14.1 °C 1020.2 hPa Calm     70% 0 mm 0 W/m2
22:39 19.6 °C 14 °C 1020.2 hPa Calm     70% 0 mm 0 W/m2
22:43 19.6 °C 13.9 °C 1020.5 hPa Calm     70% 0 mm 0 W/m2
Hartford County Weather
Compliments of Weather Underground - 4 mb